Thornley, United Kingdom
Current Conditions -  °F | °C
As of 7:50 AM on Saturday 20 Dec 2014 (Local Time) from EGNV Reporting Station
Few Clouds Few Clouds  
Wind Chill: 37°   Ceiling: Unl
Heat Index: 45°   Visibility: 6mi
Dew Point: 34°   Wind: 17mph
Humidity: 66%   Direction: 280°W
Pressure: 29.97"   Gusts: 29mph
Location:  54.75°N, 1.43°W
Report Text: EGNV 200750Z 28015G25KT 9999 FEW033 07/01 Q1015
Loading
Personal Weather Stations






























Interactive Weather Map New forecast layout! Learn more

10-Day Weather Forecast

Advertisements
Track Severe Weather on mobile